Time;durP1;ratioP1;P1;durP2;ratioP2;P2;SDS_P1;SDS_P2;PMS_P1;PMS_P2;Temp;Humidity;BMP_temperature;BMP_pressure;BME280_temperature;BME280_humidity;BME280_pressure;Samples;Min_cycle;Max_cycle;Signal;HPM_P1;HPM_P2
2022/11/06 00:01:11;;;;;;;6.63;3.42;;;10.20;85.30;;;;;;5053647;28;20030;-78
2022/11/06 00:03:37;;;;;;;8.45;2.90;;;10.20;85.40;;;;;;5053749;28;20053;-78
2022/11/06 00:08:57;;;;;;;8.27;3.28;;;10.20;85.60;;;;;;5053727;28;20040;-78
2022/11/06 00:11:23;;;;;;;8.07;3.22;;;10.10;85.70;;;;;;5036557;28;20033;-78
2022/11/06 00:13:51;;;;;;;5.53;2.88;;;10.10;85.80;;;;;;5036053;28;20053;-78
2022/11/06 00:16:18;;;;;;;7.57;3.15;;;10.10;85.90;;;;;;5036112;28;20045;-77
2022/11/06 00:18:44;;;;;;;6.07;2.97;;;10.10;85.80;;;;;;5053362;28;20034;-78
2022/11/06 00:21:19;;;;;;;7.82;3.67;;;10.10;85.70;;;;;;5052541;28;20021;-77
2022/11/06 00:23:45;;;;;;;8.95;3.08;;;10.10;85.60;;;;;;5053360;28;20084;-77
2022/11/06 00:26:14;;;;;;;9.35;3.40;;;10.10;85.50;;;;;;5053245;28;20025;-77
2022/11/06 00:28:40;;;;;;;5.13;3.10;;;10.10;85.40;;;;;;5053267;28;20025;-77
2022/11/06 00:31:11;;;;;;;7.32;3.17;;;10.10;85.20;;;;;;5052334;28;20030;-78
2022/11/06 00:33:37;;;;;;;8.63;3.10;;;10.20;85.20;;;;;;5053134;28;20112;-77
2022/11/06 00:36:05;;;;;;;10.05;3.40;;;10.10;85.10;;;;;;5035758;28;20060;-77
2022/11/06 00:38:30;;;;;;;6.18;3.15;;;10.20;85.20;;;;;;5053001;28;20018;-78
2022/11/06 00:40:56;;;;;;;7.25;3.08;;;10.10;85.10;;;;;;5053114;28;20477;-77
2022/11/06 00:43:22;;;;;;;7.43;3.20;;;10.10;85.30;;;;;;5053081;28;20045;-77
2022/11/06 00:45:47;;;;;;;9.48;2.90;;;10.00;85.30;;;;;;5053060;28;20114;-78
2022/11/06 00:48:13;;;;;;;9.38;3.10;;;10.10;85.60;;;;;;5056317;28;20041;-78
2022/11/06 00:50:38;;;;;;;3.65;2.45;;;10.00;85.50;;;;;;5039655;28;20037;-78
2022/11/06 00:53:04;;;;;;;8.00;2.53;;;10.00;85.60;;;;;;5039562;28;20040;-78
2022/11/06 00:55:30;;;;;;;5.03;2.03;;;10.00;85.60;;;;;;5039566;28;20122;-78
2022/11/06 00:57:57;;;;;;;4.80;2.05;;;10.00;85.80;;;;;;5057011;28;20025;-77
2022/11/06 01:00:22;;;;;;;7.13;2.30;;;10.00;86.10;;;;;;5057014;28;20060;-78
2022/11/06 01:02:48;;;;;;;8.32;3.10;;;10.00;86.10;;;;;;5056948;28;20029;-78
2022/11/06 01:05:14;;;;;;;3.97;2.60;;;10.00;86.20;;;;;;5056907;28;20021;-78
2022/11/06 01:07:40;;;;;;;5.18;2.13;;;10.00;86.20;;;;;;5056804;28;20445;-77
2022/11/06 01:10:06;;;;;;;7.60;2.65;;;9.90;86.20;;;;;;5039560;28;20030;-78
2022/11/06 01:12:33;;;;;;;5.95;2.67;;;9.90;86.10;;;;;;5056689;28;20029;-77
2022/11/06 01:14:59;;;;;;;6.15;2.75;;;10.00;86.00;;;;;;5056591;28;20433;-78
2022/11/06 01:17:25;;;;;;;5.80;2.42;;;10.00;85.90;;;;;;5056812;28;20041;-78
2022/11/06 01:19:50;;;;;;;5.13;2.70;;;10.00;85.80;;;;;;5056672;28;20093;-78
2022/11/06 01:22:16;;;;;;;5.38;2.53;;;10.00;85.70;;;;;;5039084;28;20037;-77
2022/11/06 01:24:42;;;;;;;7.60;2.70;;;9.90;85.70;;;;;;5056561;28;20028;-77
2022/11/06 01:27:08;;;;;;;6.53;2.50;;;10.00;85.70;;;;;;5056520;28;20081;-77
2022/11/06 01:29:34;;;;;;;3.97;2.13;;;9.90;85.70;;;;;;5056454;28;20018;-78
2022/11/06 01:32:00;;;;;;;6.30;2.25;;;9.90;85.80;;;;;;5038912;28;20025;-78
2022/11/06 01:34:26;;;;;;;6.95;2.33;;;9.90;86.00;;;;;;5039005;28;20025;-77
2022/11/06 01:36:51;;;;;;;5.55;2.40;;;9.90;86.00;;;;;;5056486;28;20029;-77
2022/11/06 01:39:18;;;;;;;8.27;2.50;;;9.90;86.10;;;;;;5038836;28;20030;-79
2022/11/06 01:41:48;;;;;;;6.10;2.33;;;9.90;85.90;;;;;;5056280;28;20047;-78
2022/11/06 01:44:31;;;;;;;5.65;2.33;;;9.90;85.80;;;;;;5056186;28;20092;-77
2022/11/06 01:46:57;;;;;;;7.85;2.38;;;9.90;85.80;;;;;;5056181;28;20029;-78
2022/11/06 01:49:24;;;;;;;6.57;2.47;;;9.90;86.70;;;;;;5056103;28;20029;-77
2022/11/06 01:51:56;;;;;;;4.47;1.80;;;9.90;85.90;;;;;;5038587;28;20030;-77
2022/11/06 01:54:26;;;;;;;4.80;2.30;;;9.90;85.90;;;;;;5056082;28;20088;-78
2022/11/06 01:56:55;;;;;;;5.85;2.08;;;9.90;85.90;;;;;;5055118;28;20022;-78
2022/11/06 01:59:24;;;;;;;4.55;1.88;;;9.90;85.90;;;;;;5055804;28;20082;-78
2022/11/06 02:01:50;;;;;;;3.83;2.17;;;9.90;86.00;;;;;;5055836;28;20024;-78
2022/11/06 02:04:32;;;;;;;4.97;2.45;;;9.90;87.00;;;;;;5055825;28;20044;-78
2022/11/06 02:06:59;;;;;;;4.55;2.28;;;9.80;86.30;;;;;;5055845;28;20112;-77
2022/11/06 02:09:25;;;;;;;7.38;1.80;;;9.90;86.20;;;;;;5054632;28;20025;-77
2022/11/06 02:11:59;;;;;;;4.03;1.85;;;9.90;86.20;;;;;;5055691;28;20033;-78
2022/11/06 02:14:39;;;;;;;3.78;2.20;;;9.90;86.20;;;;;;5055468;28;20037;-77
2022/11/06 02:17:49;;;;;;;4.97;1.83;;;9.90;86.20;;;;;;5055629;28;20083;-78
2022/11/06 02:20:23;;;;;;;4.53;1.52;;;9.90;87.00;;;;;;5055696;28;20049;-78
2022/11/06 02:23:08;;;;;;;10.73;2.40;;;10.00;86.20;;;;;;5055637;28;20068;-77
2022/11/06 02:26:11;;;;;;;5.03;2.05;;;10.00;86.30;;;;;;5055437;28;20049;-77
2022/11/06 02:28:44;;;;;;;;;;;10.00;86.20;;;;;;5054833;28;20025;-78
2022/11/06 02:31:16;;;;;;;4.00;1.67;;;10.00;86.20;;;;;;5055354;28;19920;-78
2022/11/06 02:34:05;;;;;;;7.28;1.90;;;10.00;86.30;;;;;;5055267;28;20039;-78
2022/11/06 02:36:38;;;;;;;5.70;1.75;;;10.00;86.20;;;;;;5055387;28;20018;-78
2022/11/06 02:39:09;;;;;;;5.30;1.60;;;10.10;86.20;;;;;;5055204;28;20028;-78
2022/11/06 02:41:38;;;;;;;7.30;1.85;;;10.00;86.10;;;;;;5055220;28;20025;-78
2022/11/06 02:44:08;;;;;;;2.45;1.40;;;10.10;86.20;;;;;;5055101;28;20033;-77
2022/11/06 02:46:42;;;;;;;5.63;2.13;;;10.10;86.10;;;;;;5055095;28;20100;-78
2022/11/06 02:49:13;;;;;;;6.32;1.67;;;10.10;86.30;;;;;;5054078;28;20025;-78
2022/11/06 02:51:46;;;;;;;3.33;1.90;;;10.10;86.10;;;;;;5037412;28;20033;-78
2022/11/06 02:54:13;;;;;;;8.35;2.40;;;10.10;86.30;;;;;;5054878;28;20029;-77
2022/11/06 02:56:41;;;;;;;6.63;1.58;;;10.10;86.20;;;;;;5053829;28;20065;-78
2022/11/06 02:59:48;;;;;;;5.57;2.03;;;10.10;86.10;;;;;;5054789;28;20022;-77
2022/11/06 03:02:20;;;;;;;4.95;1.83;;;10.10;86.20;;;;;;5054737;28;20030;-78
2022/11/06 03:04:48;;;;;;;5.72;1.60;;;10.10;86.20;;;;;;5037342;28;20014;-78
2022/11/06 03:07:46;;;;;;;7.40;2.50;;;10.20;86.20;;;;;;5054601;28;20037;-78
2022/11/06 03:10:12;;;;;;;6.13;2.10;;;10.20;86.20;;;;;;5016044;28;20033;-78
2022/11/06 03:12:57;;;;;;;7.15;1.90;;;10.20;86.40;;;;;;5054453;28;20036;-77
2022/11/06 03:15:37;;;;;;;8.45;2.25;;;10.20;86.10;;;;;;5054209;28;20041;-78
2022/11/06 03:18:28;;;;;;;9.55;2.08;;;10.20;86.20;;;;;;5054607;28;20393;-77
2022/11/06 03:21:07;;;;;;;3.08;2.00;;;10.30;85.90;;;;;;5054444;28;20077;-78
2022/11/06 03:23:34;;;;;;;4.82;1.83;;;10.30;86.00;;;;;;5053334;28;20053;-78
2022/11/06 03:26:26;;;;;;;3.00;1.55;;;10.30;86.10;;;;;;5053183;28;20021;-78
2022/11/06 03:28:59;;;;;;;5.70;2.28;;;10.30;86.10;;;;;;5054222;28;20045;-78
2022/11/06 03:31:33;;;;;;;6.45;1.58;;;10.30;86.30;;;;;;5054241;28;20036;-77
2022/11/06 03:34:03;;;;;;;4.28;1.88;;;10.40;86.10;;;;;;5053060;28;20397;-78
2022/11/06 03:36:38;;;;;;;4.80;1.58;;;10.40;86.20;;;;;;5054172;28;20018;-77
2022/11/06 03:39:26;;;;;;;7.38;2.20;;;10.40;85.90;;;;;;5054101;28;20057;-78
2022/11/06 03:42:02;;;;;;;2.58;1.17;;;10.40;85.90;;;;;;5053292;28;20033;-77
2022/11/06 03:44:32;;;;;;;6.18;1.65;;;10.40;85.90;;;;;;5052984;28;20022;-77
2022/11/06 03:47:28;;;;;;;1.67;1.20;;;10.50;85.90;;;;;;5054117;28;20009;-78
2022/11/06 03:50:23;;;;;;;6.82;1.77;;;10.50;85.90;;;;;;5053997;28;20032;-77
2022/11/06 03:52:55;;;;;;;4.78;2.20;;;10.50;85.70;;;;;;5053773;28;20032;-77
2022/11/06 03:55:27;;;;;;;9.05;1.50;;;10.50;86.60;;;;;;5053869;28;20049;-78
2022/11/06 03:58:02;;;;;;;3.27;1.70;;;10.50;85.80;;;;;;5036370;28;20120;-78
2022/11/06 04:00:28;;;;;;;5.88;1.83;;;10.50;85.70;;;;;;5053754;28;20025;-77
2022/11/06 04:03:04;;;;;;;3.95;1.70;;;10.50;85.80;;;;;;5053632;28;20064;-78
2022/11/06 04:05:46;;;;;;;7.55;2.10;;;10.50;86.00;;;;;;5053688;28;20056;-78
2022/11/06 04:13:59;;;;;;;6.50;1.30;;;10.60;86.00;;;;;;5053615;28;20036;-77
2022/11/06 04:16:30;;;;;;;6.18;1.70;;;10.60;86.00;;;;;;5037476;28;20042;-77
2022/11/06 04:18:57;;;;;;;6.55;2.17;;;10.60;86.00;;;;;;5053448;28;20028;-78
2022/11/06 04:21:35;;;;;;;7.38;2.03;;;10.60;86.20;;;;;;5052584;28;20048;-78
2022/11/06 04:27:46;;;;;;;5.38;1.83;;;10.60;86.00;;;;;;5053560;28;20044;-77
2022/11/06 04:30:14;;;;;;;3.10;1.23;;;10.60;86.20;;;;;;5052212;28;20029;-77
2022/11/06 04:33:09;;;;;;;5.60;1.60;;;10.60;86.00;;;;;;5053191;28;20033;-78
2022/11/06 04:35:43;;;;;;;6.15;1.67;;;10.60;86.20;;;;;;5053271;28;20104;-77
2022/11/06 04:38:21;;;;;;;5.60;1.52;;;10.60;86.30;;;;;;5035685;28;20031;-78
2022/11/06 04:40:49;;;;;;;4.70;2.10;;;10.60;86.10;;;;;;5053356;28;20018;-78
2022/11/06 04:43:27;;;;;;;6.22;2.00;;;10.60;86.20;;;;;;5053128;28;20081;-78
2022/11/06 04:45:57;;;;;;;5.88;2.10;;;10.60;86.20;;;;;;5053309;28;20048;-78
2022/11/06 04:48:23;;;;;;;6.05;2.40;;;10.70;86.10;;;;;;5052069;28;20022;-78
2022/11/06 04:50:54;;;;;;;4.88;1.85;;;10.70;85.90;;;;;;5053029;28;20116;-78
2022/11/06 04:53:21;;;;;;;5.35;1.80;;;10.70;85.80;;;;;;5052976;28;20032;-78
2022/11/06 04:55:55;;;;;;;5.47;1.80;;;10.70;85.80;;;;;;5035623;28;20473;-78
2022/11/06 04:58:22;;;;;;;8.80;1.77;;;10.80;85.40;;;;;;5053016;28;20099;-78
2022/11/06 05:00:50;;;;;;;4.30;1.90;;;10.80;85.30;;;;;;5019268;28;20089;-78
2022/11/06 05:03:17;;;;;;;4.63;1.92;;;10.80;85.40;;;;;;5052908;28;20056;-78
2022/11/06 05:05:43;;;;;;;6.15;2.03;;;10.70;85.50;;;;;;5052918;28;20025;-78
2022/11/06 05:08:17;;;;;;;5.43;1.80;;;10.60;85.70;;;;;;5035492;28;20069;-78
2022/11/06 05:10:44;;;;;;;4.47;1.55;;;10.60;85.90;;;;;;5052886;28;20029;-78
2022/11/06 05:13:11;;;;;;;3.67;1.98;;;10.60;85.90;;;;;;5035412;28;20033;-78
2022/11/06 05:15:37;;;;;;;6.65;1.77;;;10.60;85.90;;;;;;5052738;28;20045;-77
2022/11/06 05:18:04;;;;;;;7.47;2.25;;;10.60;86.00;;;;;;5051842;28;20010;-77
2022/11/06 05:20:29;;;;;;;6.03;2.13;;;10.60;85.90;;;;;;5052778;28;20028;-78
2022/11/06 05:22:59;;;;;;;4.95;2.10;;;10.60;85.90;;;;;;5052752;28;20045;-77
2022/11/06 05:25:38;;;;;;;3.28;1.55;;;10.60;85.70;;;;;;5052713;28;20117;-78
2022/11/06 05:28:06;;;;;;;3.95;2.20;;;10.60;85.60;;;;;;5052744;28;20085;-78
2022/11/06 05:30:33;;;;;;;5.15;2.10;;;10.60;85.50;;;;;;5035188;28;20025;-77
2022/11/06 05:32:58;;;;;;;5.00;1.92;;;10.50;85.60;;;;;;5053580;28;20061;-77
2022/11/06 05:35:24;;;;;;;6.07;2.30;;;10.60;85.40;;;;;;5056397;28;20033;-78
2022/11/06 05:37:50;;;;;;;7.38;2.05;;;10.50;85.40;;;;;;5038993;28;20056;-77
2022/11/06 05:40:16;;;;;;;7.53;1.88;;;10.50;85.50;;;;;;5056293;28;20073;-78
2022/11/06 05:42:42;;;;;;;6.00;2.00;;;10.50;85.60;;;;;;5055229;28;20396;-78
2022/11/06 05:45:09;;;;;;;4.90;1.98;;;10.40;85.70;;;;;;5056219;28;20051;-77
2022/11/06 05:47:38;;;;;;;4.75;1.67;;;10.40;85.80;;;;;;5056154;28;20029;-77
2022/11/06 05:50:04;;;;;;;6.15;1.95;;;10.40;86.70;;;;;;5056134;28;20061;-77
2022/11/06 05:52:30;;;;;;;7.43;2.38;;;10.30;86.10;;;;;;5056039;28;20026;-77
2022/11/06 05:54:56;;;;;;;4.78;1.90;;;10.30;86.10;;;;;;5056169;28;20036;-78
2022/11/06 05:57:21;;;;;;;2.75;1.92;;;10.30;86.00;;;;;;5056103;28;20022;-77
2022/11/06 05:59:47;;;;;;;6.10;2.22;;;10.30;86.30;;;;;;5055919;28;20056;-77
2022/11/06 06:02:12;;;;;;;4.03;1.83;;;10.20;86.30;;;;;;5038385;28;20045;-77
2022/11/06 06:04:38;;;;;;;5.88;2.10;;;10.20;86.30;;;;;;5055983;28;20049;-78
2022/11/06 06:07:04;;;;;;;4.22;1.80;;;10.20;86.50;;;;;;5038284;28;20124;-78
2022/11/06 06:09:29;;;;;;;8.07;2.10;;;10.20;86.40;;;;;;5055702;28;20029;-78
2022/11/06 06:11:55;;;;;;;5.72;1.70;;;10.20;86.60;;;;;;5055713;28;20029;-78
2022/11/06 06:14:20;;;;;;;5.97;2.58;;;10.20;86.50;;;;;;5038233;28;20032;-78
2022/11/06 06:16:46;;;;;;;6.32;2.13;;;10.20;86.50;;;;;;5055463;28;20507;-78
2022/11/06 06:19:12;;;;;;;4.53;2.13;;;10.20;86.60;;;;;;5038056;28;20025;-78
2022/11/06 06:21:38;;;;;;;4.60;1.70;;;10.20;86.50;;;;;;5038088;28;20089;-77
2022/11/06 06:24:04;;;;;;;2.97;1.70;;;10.20;86.80;;;;;;5038050;28;20109;-77
2022/11/06 06:26:29;;;;;;;6.53;2.17;;;10.20;87.10;;;;;;5037903;28;20033;-78
2022/11/06 06:28:55;;;;;;;5.68;2.28;;;10.10;87.30;;;;;;5055374;28;20037;-78
2022/11/06 06:31:21;;;;;;;4.38;1.60;;;10.10;87.40;;;;;;5037860;28;20021;-78
2022/11/06 06:33:47;;;;;;;2.70;1.70;;;10.10;87.40;;;;;;5037787;28;20084;-79
2022/11/06 06:36:12;;;;;;;4.22;1.60;;;10.10;87.50;;;;;;5037806;28;20032;-78
2022/11/06 06:38:38;;;;;;;7.07;2.20;;;10.20;87.70;;;;;;5037871;28;20024;-79
2022/11/06 06:41:07;;;;;;;9.15;1.90;;;10.20;87.70;;;;;;5055205;28;20516;-78
2022/11/06 06:43:33;;;;;;;4.57;1.83;;;10.20;87.60;;;;;;5054122;28;20052;-78
2022/11/06 06:46:00;;;;;;;5.40;1.83;;;10.20;87.50;;;;;;5036630;28;20030;-77
2022/11/06 06:48:26;;;;;;;8.60;2.08;;;10.20;87.40;;;;;;5055034;28;20026;-78
2022/11/06 06:50:55;;;;;;;7.50;1.88;;;10.20;87.40;;;;;;5054989;28;20052;-78
2022/11/06 06:53:20;;;;;;;4.68;2.25;;;10.30;87.30;;;;;;5054819;28;20030;-80
2022/11/06 06:55:46;;;;;;;4.30;2.20;;;10.20;87.20;;;;;;5054859;28;20036;-78
2022/11/06 06:58:11;;;;;;;4.00;1.90;;;10.30;87.30;;;;;;5054851;28;20029;-78
2022/11/06 07:00:37;;;;;;;4.93;2.20;;;10.30;87.40;;;;;;5037373;28;20036;-78
2022/11/06 07:03:02;;;;;;;6.38;1.70;;;10.30;87.30;;;;;;5054733;28;20030;-78
2022/11/06 07:05:28;;;;;;;4.13;1.58;;;10.40;87.10;;;;;;5020814;28;20026;-78
2022/11/06 07:07:54;;;;;;;7.57;1.85;;;10.40;88.00;;;;;;5054581;28;20033;-78
2022/11/06 07:10:19;;;;;;;4.63;1.98;;;10.30;87.40;;;;;;5054604;28;20025;-78
2022/11/06 07:12:45;;;;;;;6.93;1.60;;;10.40;87.00;;;;;;5036966;28;20037;-78
2022/11/06 07:15:11;;;;;;;6.10;1.60;;;10.40;86.80;;;;;;5036770;28;20105;-78
2022/11/06 07:17:36;;;;;;;5.88;1.65;;;10.40;86.90;;;;;;5036945;28;20035;-78
2022/11/06 07:20:02;;;;;;;5.75;1.80;;;10.50;87.00;;;;;;5054468;28;20030;-78
2022/11/06 07:22:28;;;;;;;8.90;1.88;;;10.50;86.60;;;;;;5054387;28;20033;-78
2022/11/06 07:24:53;;;;;;;5.30;1.70;;;10.50;86.90;;;;;;5054030;28;20064;-78
2022/11/06 07:27:19;;;;;;;5.63;1.65;;;10.50;86.90;;;;;;5054263;28;20033;-77
2022/11/06 07:29:45;;;;;;;4.55;1.70;;;10.60;87.10;;;;;;5054256;28;20030;-78
2022/11/06 07:32:10;;;;;;;6.43;1.85;;;10.60;86.80;;;;;;5054135;28;20053;-78
2022/11/06 07:34:39;;;;;;;6.30;1.52;;;10.60;86.40;;;;;;5054117;28;20029;-78
2022/11/06 07:37:06;;;;;;;2.67;1.23;;;10.60;86.70;;;;;;5053049;28;20030;-78
2022/11/06 07:39:31;;;;;;;6.30;1.80;;;10.70;86.20;;;;;;5054058;28;20044;-78
2022/11/06 07:41:57;;;;;;;5.65;1.40;;;10.70;86.60;;;;;;5054126;28;20033;-78
2022/11/06 07:44:23;;;;;;;7.35;1.65;;;10.70;86.30;;;;;;5053971;28;20029;-78
2022/11/06 07:46:48;;;;;;;1.67;1.38;;;10.70;86.40;;;;;;5053951;28;20477;-79
2022/11/06 07:49:15;;;;;;;6.03;1.67;;;10.70;86.70;;;;;;5053870;28;20057;-81
2022/11/06 07:51:41;;;;;;;4.63;1.95;;;10.80;86.10;;;;;;5036608;28;20033;-81
2022/11/06 07:54:07;;;;;;;5.10;1.67;;;10.80;86.40;;;;;;5052792;28;20021;-81
2022/11/06 07:56:33;;;;;;;4.40;1.63;;;10.80;86.10;;;;;;5052603;28;20018;-79
2022/11/06 07:58:58;;;;;;;6.07;1.50;;;10.80;86.30;;;;;;5053704;28;20080;-80
2022/11/06 08:01:24;;;;;;;6.43;1.90;;;10.80;86.00;;;;;;5036185;28;20052;-81
2022/11/06 08:03:49;;;;;;;5.00;1.95;;;10.90;86.30;;;;;;5036231;28;20034;-80
2022/11/06 08:06:15;;;;;;;3.28;1.50;;;10.90;86.00;;;;;;5036297;28;20029;-80
2022/11/06 08:08:41;;;;;;;3.58;1.58;;;10.90;85.50;;;;;;5035989;28;20037;-81
2022/11/06 08:11:09;;;;;;;4.25;1.67;;;10.90;85.50;;;;;;5036222;28;20021;-80
2022/11/06 08:13:35;;;;;;;3.95;1.70;;;10.90;85.20;;;;;;5052402;28;20492;-82
2022/11/06 08:16:09;;;;;;;4.50;1.88;;;10.90;85.40;;;;;;5052260;28;20034;-81
2022/11/06 08:18:35;;;;;;;4.18;1.38;;;10.90;85.30;;;;;;5053464;28;20035;-80
2022/11/06 08:21:01;;;;;;;7.05;2.30;;;10.90;85.30;;;;;;5053375;28;20025;-81
2022/11/06 08:23:27;;;;;;;3.75;1.50;;;10.90;85.30;;;;;;5053339;28;20093;-81
2022/11/06 08:25:54;;;;;;;4.95;1.80;;;10.90;85.30;;;;;;5053440;28;20056;-82
2022/11/06 08:28:20;;;;;;;7.30;1.55;;;10.90;85.40;;;;;;5053285;28;20034;-81
2022/11/06 08:30:46;;;;;;;4.07;1.35;;;11.00;85.30;;;;;;5053406;28;20563;-79
2022/11/06 08:33:11;;;;;;;4.68;2.05;;;11.00;85.20;;;;;;5035726;28;20041;-80
2022/11/06 08:35:37;;;;;;;4.72;1.75;;;11.00;85.50;;;;;;5035784;28;20030;-80
2022/11/06 08:38:03;;;;;;;3.30;1.30;;;11.00;85.10;;;;;;5053153;28;20111;-81
2022/11/06 08:40:29;;;;;;;6.13;1.70;;;11.10;84.80;;;;;;5053117;28;20056;-81
2022/11/06 08:43:02;;;;;;;2.63;1.38;;;11.10;84.80;;;;;;5035660;28;20033;-80
2022/11/06 08:45:28;;;;;;;4.63;1.48;;;11.20;84.80;;;;;;5053242;28;20029;-81
2022/11/06 08:47:54;;;;;;;7.78;1.98;;;11.20;85.00;;;;;;5053053;28;20030;-81
2022/11/06 08:50:19;;;;;;;6.22;1.77;;;11.30;85.00;;;;;;5053083;28;20086;-80
2022/11/06 08:52:45;;;;;;;4.97;1.55;;;11.30;84.00;;;;;;5051982;28;20083;-81
2022/11/06 08:55:11;;;;;;;6.78;1.73;;;11.30;84.70;;;;;;5052994;28;20025;-81
2022/11/06 08:57:36;;;;;;;5.57;1.40;;;11.50;84.40;;;;;;5035505;28;20104;-80
2022/11/06 09:00:03;;;;;;;7.88;1.80;;;11.60;84.40;;;;;;5052994;28;20034;-80
2022/11/06 09:02:29;;;;;;;8.95;1.90;;;11.70;83.90;;;;;;5052878;28;20021;-80
2022/11/06 09:04:54;;;;;;;3.28;1.60;;;11.80;83.80;;;;;;5019232;28;20041;-80
2022/11/06 09:07:20;;;;;;;3.30;1.27;;;11.80;83.30;;;;;;5052949;28;20032;-80
2022/11/06 09:09:45;;;;;;;4.03;1.30;;;11.80;83.50;;;;;;5039263;28;20026;-80
2022/11/06 09:12:11;;;;;;;4.13;1.52;;;11.90;82.70;;;;;;5056731;28;20045;-81
2022/11/06 09:14:38;;;;;;;3.85;1.70;;;12.10;83.50;;;;;;5056653;28;20030;-79
2022/11/06 09:17:04;;;;;;;4.20;1.30;;;12.30;82.10;;;;;;5039695;28;20022;-79
2022/11/06 09:19:30;;;;;;;2.28;1.27;;;12.30;81.60;;;;;;5056751;28;20078;-80
2022/11/06 09:21:55;;;;;;;4.43;1.30;;;12.30;80.90;;;;;;5055629;28;20064;-81
2022/11/06 09:24:21;;;;;;;4.47;1.52;;;12.20;80.60;;;;;;5056635;28;20030;-81
2022/11/06 09:26:47;;;;;;;5.65;1.90;;;12.30;81.50;;;;;;5039154;28;20036;-81
2022/11/06 09:29:12;;;;;;;5.97;1.65;;;12.40;81.20;;;;;;5039049;28;20107;-81
2022/11/06 09:31:38;;;;;;;7.68;1.85;;;12.40;81.20;;;;;;5055524;28;20032;-81
2022/11/06 09:34:03;;;;;;;4.65;1.30;;;12.50;81.30;;;;;;5056360;28;20044;-81
2022/11/06 09:36:29;;;;;;;4.32;1.70;;;12.30;79.70;;;;;;5056405;28;20041;-81
2022/11/06 09:38:55;;;;;;;3.90;1.48;;;12.20;79.50;;;;;;5038978;28;20025;-81
2022/11/06 09:41:45;;;;;;;3.03;1.80;;;12.20;80.10;;;;;;5038872;28;20400;-81
2022/11/06 09:44:46;;;;;;;5.97;2.00;;;12.20;79.90;;;;;;5055236;28;20026;-80
2022/11/06 09:47:20;;;;;;;5.07;1.33;;;12.20;79.90;;;;;;5056327;28;20080;-80
2022/11/06 09:49:48;;;;;;;4.85;1.52;;;12.30;79.40;;;;;;5056178;28;20031;-80
2022/11/06 09:52:21;;;;;;;4.40;1.60;;;12.30;79.80;;;;;;5056069;28;20083;-79
2022/11/06 09:55:19;;;;;;;3.35;1.73;;;12.30;79.20;;;;;;5056083;28;20500;-80
2022/11/06 09:57:55;;;;;;;3.70;1.40;;;12.40;79.60;;;;;;5055447;28;20033;-80
2022/11/06 10:00:20;;;;;;;7.10;1.67;;;12.40;79.50;;;;;;5056195;28;20080;-80
2022/11/06 10:02:49;;;;;;;4.95;1.40;;;12.50;79.90;;;;;;5056058;28;20037;-81
2022/11/06 10:05:27;;;;;;;3.40;1.10;;;12.50;79.20;;;;;;5055843;28;20156;-81
2022/11/06 10:07:58;;;;;;;5.20;1.40;;;12.40;78.70;;;;;;5055757;28;20025;-80
2022/11/06 10:10:35;;;;;;;5.43;1.35;;;12.30;78.40;;;;;;5055760;28;20021;-79
2022/11/06 10:13:31;;;;;;;5.05;1.67;;;12.30;79.30;;;;;;5055730;28;20033;-78
2022/11/06 10:16:09;;;;;;;4.70;1.58;;;12.20;79.10;;;;;;5054481;28;20052;-80
2022/11/06 10:19:00;;;;;;;3.22;1.50;;;12.20;79.50;;;;;;5055240;28;20014;-82
2022/11/06 10:21:58;;;;;;;3.95;1.42;;;12.20;79.40;;;;;;5055238;28;20044;-82
2022/11/06 10:24:46;;;;;;;6.05;2.13;;;12.20;79.70;;;;;;5055550;28;20428;-82
2022/11/06 10:27:26;;;;;;;4.70;2.28;;;12.30;80.40;;;;;;5055462;28;20029;-81
2022/11/06 10:30:17;;;;;;;2.15;1.42;;;12.30;80.10;;;;;;5055465;28;20022;-82
2022/11/06 10:33:01;;;;;;;2.75;2.00;;;12.30;79.60;;;;;;5043963;28;20041;-82
2022/11/06 10:35:42;;;;;;;6.32;1.83;;;12.30;79.60;;;;;;5054362;28;20033;-80
2022/11/06 10:38:23;;;;;;;2.83;1.60;;;12.30;80.10;;;;;;5055437;28;20049;-81
2022/11/06 10:40:50;;;;;;;2.95;1.38;;;12.30;80.50;;;;;;5055372;28;20014;-80
2022/11/06 10:43:45;;;;;;;5.63;1.83;;;12.30;79.90;;;;;;5055175;28;20049;-81
2022/11/06 10:46:37;;;;;;;4.80;1.55;;;12.30;79.90;;;;;;5055208;28;20029;-81
2022/11/06 10:49:20;;;;;;;2.97;1.45;;;12.30;80.20;;;;;;5054233;28;20029;-81
2022/11/06 10:52:09;;;;;;;8.68;1.95;;;12.30;79.20;;;;;;5055058;28;20025;-81
2022/11/06 10:54:49;;;;;;;5.05;1.52;;;12.20;78.70;;;;;;5053955;28;20121;-81
2022/11/06 10:57:21;;;;;;;5.28;1.52;;;12.20;79.10;;;;;;5055084;28;20028;-81
2022/11/06 10:59:48;;;;;;;2.72;1.42;;;12.30;79.70;;;;;;5055083;28;20025;-81
2022/11/06 11:02:29;;;;;;;4.10;1.70;;;12.20;79.30;;;;;;5021099;28;20065;-81
2022/11/06 11:04:55;;;;;;;2.67;1.10;;;12.30;79.90;;;;;;5054663;28;20025;-81
2022/11/06 11:07:20;;;;;;;3.60;1.77;;;12.30;78.70;;;;;;5054716;28;20077;-81
2022/11/06 11:09:48;;;;;;;3.45;1.50;;;12.40;78.90;;;;;;5054624;28;20033;-82
2022/11/06 11:12:26;;;;;;;3.38;1.30;;;12.50;78.30;;;;;;5053517;28;20021;-82
2022/11/06 11:15:13;;;;;;;4.65;1.20;;;12.50;77.30;;;;;;5054542;28;20105;-81
2022/11/06 11:17:41;;;;;;;6.80;2.65;;;12.50;78.20;;;;;;5053659;28;20017;-81
2022/11/06 11:20:33;;;;;;;5.32;1.65;;;12.50;78.20;;;;;;5054543;28;20031;-81
2022/11/06 11:23:19;;;;;;;2.40;1.30;;;12.50;77.50;;;;;;5054494;28;20048;-81
2022/11/06 11:25:56;;;;;;;4.10;1.25;;;12.50;76.80;;;;;;5053302;28;20033;-81
2022/11/06 11:28:22;;;;;;;4.88;1.15;;;12.50;76.50;;;;;;5054360;28;20017;-81
2022/11/06 11:31:14;;;;;;;13.20;1.48;;;12.50;76.50;;;;;;5053912;28;20036;-81
2022/11/06 11:33:49;;;;;;;3.70;1.05;;;12.50;76.50;;;;;;5054314;28;20033;-82
2022/11/06 11:36:15;;;;;;;3.33;1.00;;;12.60;75.10;;;;;;5054331;28;20021;-82
2022/11/06 11:38:42;;;;;;;3.58;1.20;;;12.50;76.30;;;;;;5054107;28;20040;-81
2022/11/06 11:41:20;;;;;;;7.45;1.27;;;12.50;75.90;;;;;;5054125;28;20025;-80
2022/11/06 11:44:12;;;;;;;3.28;1.10;;;12.50;75.40;;;;;;5054048;28;20028;-81
2022/11/06 11:46:51;;;;;;;2.80;1.17;;;12.50;75.70;;;;;;5053998;28;20085;-81
2022/11/06 11:49:29;;;;;;;4.47;1.38;;;12.60;75.30;;;;;;5053900;28;20036;-81
2022/11/06 11:52:10;;;;;;;2.97;0.95;;;12.60;75.10;;;;;;5053862;28;20029;-81
2022/11/06 11:54:36;;;;;;;5.00;1.00;;;12.60;74.50;;;;;;5052771;28;20025;-82
2022/11/06 11:57:05;;;;;;;3.25;1.20;;;12.60;75.00;;;;;;5036356;28;20025;-82
2022/11/06 11:59:40;;;;;;;2.47;1.15;;;12.60;74.90;;;;;;5053830;28;20037;-81
2022/11/06 12:02:14;;;;;;;2.88;0.90;;;12.70;75.40;;;;;;5036194;28;20030;-81
2022/11/06 12:04:43;;;;;;;5.38;1.00;;;12.70;74.80;;;;;;5053646;28;20084;-81
2022/11/06 12:07:23;;;;;;;1.83;0.98;;;12.80;75.90;;;;;;5053626;28;20022;-81
2022/11/06 12:09:49;;;;;;;3.65;1.00;;;12.80;75.60;;;;;;5053611;28;20025;-81
2022/11/06 12:12:30;;;;;;;1.38;0.80;;;12.80;75.30;;;;;;5053552;28;20048;-81
2022/11/06 12:15:07;;;;;;;5.60;1.15;;;12.80;74.40;;;;;;5053266;28;20100;-80
2022/11/06 12:17:36;;;;;;;3.20;0.90;;;12.80;75.60;;;;;;5036102;28;20052;-82
2022/11/06 12:20:09;;;;;;;4.32;1.52;;;12.90;74.30;;;;;;5053513;28;20491;-81
2022/11/06 12:22:39;;;;;;;3.10;0.93;;;12.90;73.60;;;;;;5053590;28;20022;-82
2022/11/06 12:25:18;;;;;;;2.38;0.75;;;12.90;73.80;;;;;;5053407;28;20051;-81
2022/11/06 12:27:48;;;;;;;5.90;1.25;;;12.90;72.60;;;;;;5053425;28;20053;-80
2022/11/06 12:30:17;;;;;;;7.25;0.95;;;12.90;72.30;;;;;;5053329;28;20043;-81
2022/11/06 12:33:18;;;;;;;4.72;0.93;;;13.00;72.80;;;;;;5053410;28;20033;-81
2022/11/06 12:35:54;;;;;;;7.72;1.60;;;13.00;72.50;;;;;;5034974;28;20037;-82
2022/11/06 12:38:27;;;;;;;3.28;0.93;;;13.10;72.90;;;;;;5052282;28;20093;-81
2022/11/06 12:41:10;;;;;;;3.78;1.65;;;13.10;72.40;;;;;;5053190;28;20086;-82
2022/11/06 12:43:47;;;;;;;3.72;0.88;;;13.10;72.70;;;;;;5052388;28;20029;-81
2022/11/06 12:46:37;;;;;;;4.85;1.17;;;13.10;71.00;;;;;;5053332;28;20028;-81
2022/11/06 12:49:21;;;;;;;2.80;1.05;;;13.10;70.40;;;;;;5053194;28;20025;-81
2022/11/06 12:52:11;;;;;;;1.17;0.57;;;13.00;70.80;;;;;;5053055;28;20025;-81
2022/11/06 12:54:52;;;;;;;3.10;0.80;;;13.00;70.80;;;;;;5053089;28;20030;-81
2022/11/06 12:57:51;;;;;;;6.90;0.90;;;13.00;72.10;;;;;;5053180;28;20053;-81
2022/11/06 13:00:23;;;;;;;3.90;0.75;;;13.00;70.00;;;;;;5052073;28;20049;-81
2022/11/06 13:03:20;;;;;;;4.75;0.93;;;13.00;70.50;;;;;;5035803;28;20033;-80
2022/11/06 13:05:51;;;;;;;4.20;0.88;;;13.00;69.70;;;;;;5052942;28;20040;-80
2022/11/06 13:08:27;;;;;;;1.25;0.68;;;13.00;69.90;;;;;;5052872;28;20025;-80
2022/11/06 13:11:21;;;;;;;1.55;0.68;;;12.90;70.20;;;;;;5052947;28;20026;-80
2022/11/06 13:14:03;;;;;;;1.10;0.55;;;12.90;70.30;;;;;;5035403;28;20029;-80
2022/11/06 13:16:47;;;;;;;3.70;0.98;;;12.90;69.80;;;;;;5035257;28;20041;-79
2022/11/06 13:19:31;;;;;;;4.05;0.80;;;12.80;69.80;;;;;;5052898;28;20021;-79
2022/11/06 13:22:13;;;;;;;1.50;0.80;;;12.80;70.00;;;;;;5051837;28;20036;-78
2022/11/06 13:24:50;;;;;;;2.72;0.90;;;12.80;69.50;;;;;;5052948;28;20033;-79